createdAt,value
2023-04-18T00:00:21.460Z,562.00
2023-04-18T00:01:21.513Z,566.00
2023-04-18T00:02:21.701Z,565.00
2023-04-18T00:03:21.868Z,565.00
2023-04-18T00:04:22.179Z,561.00
2023-04-18T00:05:21.920Z,561.00
2023-04-18T00:06:21.813Z,565.00
2023-04-18T00:07:21.879Z,565.00
2023-04-18T00:08:21.946Z,561.00
2023-04-18T00:09:22.067Z,564.00
2023-04-18T00:10:22.066Z,565.00
2023-04-18T00:11:22.134Z,562.00
2023-04-18T00:12:22.199Z,560.00
2023-04-18T00:13:22.262Z,563.00
2023-04-18T00:14:22.351Z,564.00
2023-04-18T00:15:22.400Z,559.00
2023-04-18T00:16:22.477Z,566.00
2023-04-18T00:17:22.534Z,561.00
2023-04-18T00:18:22.556Z,562.00
2023-04-18T00:19:22.642Z,559.00
2023-04-18T00:20:22.682Z,558.00
2023-04-18T00:21:22.748Z,558.00
2023-04-18T00:22:22.820Z,565.00
2023-04-18T00:23:22.860Z,563.00
2023-04-18T00:24:22.928Z,559.00
2023-04-18T00:25:22.989Z,563.00
2023-04-18T00:26:23.032Z,567.00
2023-04-18T00:27:23.103Z,561.00
2023-04-18T00:28:23.174Z,558.00
2023-04-18T00:29:23.258Z,560.00
2023-04-18T00:30:23.319Z,560.00
2023-04-18T00:31:23.411Z,562.00
2023-04-18T00:32:23.499Z,561.00
2023-04-18T00:33:23.492Z,560.00
2023-04-18T00:34:23.607Z,567.00
2023-04-18T00:35:23.672Z,564.00
2023-04-18T00:36:23.688Z,564.00
2023-04-18T00:37:23.736Z,563.00
2023-04-18T00:38:23.835Z,564.00
2023-04-18T00:39:23.876Z,558.00
2023-04-18T00:40:23.994Z,558.00
2023-04-18T00:41:23.975Z,558.00
2023-04-18T00:42:24.067Z,560.00
2023-04-18T00:43:24.159Z,559.00
2023-04-18T00:44:24.197Z,559.00
2023-04-18T00:45:24.262Z,561.00
2023-04-18T00:46:24.368Z,558.00
2023-04-18T00:47:24.399Z,557.00
2023-04-18T00:48:24.467Z,559.00
2023-04-18T00:49:24.512Z,560.00
2023-04-18T00:50:24.593Z,563.00
2023-04-18T00:51:24.632Z,558.00
2023-04-18T00:52:24.709Z,558.00
2023-04-18T00:53:24.754Z,554.00
2023-04-18T00:54:24.924Z,558.00
2023-04-18T00:55:24.960Z,557.00
2023-04-18T00:56:24.934Z,562.00
2023-04-18T00:57:25.005Z,560.00
2023-04-18T00:58:25.066Z,557.00
2023-04-18T00:59:25.144Z,560.00
2023-04-18T01:00:25.217Z,554.00
2023-04-18T01:01:25.288Z,561.00
2023-04-18T01:02:25.374Z,557.00
2023-04-18T01:03:25.546Z,553.00
2023-04-18T01:04:25.531Z,556.00
2023-04-18T01:05:25.505Z,556.00
2023-04-18T01:06:25.544Z,561.00
2023-04-18T01:07:25.649Z,560.00
2023-04-18T01:08:25.653Z,558.00
2023-04-18T01:09:25.733Z,558.00
2023-04-18T01:10:25.805Z,555.00
2023-04-18T01:11:25.966Z,558.00
2023-04-18T01:12:25.900Z,557.00
2023-04-18T01:13:26.018Z,557.00
2023-04-18T01:14:26.440Z,555.00
2023-04-18T01:15:26.061Z,558.00
2023-04-18T01:16:26.160Z,556.00
2023-04-18T01:17:26.245Z,560.00
2023-04-18T01:18:26.255Z,557.00
2023-04-18T01:19:26.290Z,558.00
2023-04-18T01:20:26.349Z,559.00
2023-04-18T01:21:26.436Z,560.00
2023-04-18T01:22:26.443Z,556.00
2023-04-18T01:23:26.496Z,556.00
2023-04-18T01:24:26.582Z,557.00
2023-04-18T01:25:26.645Z,554.00
2023-04-18T01:26:26.709Z,556.00
2023-04-18T01:27:26.764Z,553.00
2023-04-18T01:28:26.803Z,555.00
2023-04-18T01:29:26.872Z,561.00
2023-04-18T01:30:26.947Z,554.00
2023-04-18T01:31:27.027Z,557.00
2023-04-18T01:32:27.036Z,555.00
2023-04-18T01:33:27.062Z,553.00
2023-04-18T01:34:27.121Z,556.00
2023-04-18T01:35:27.242Z,555.00
2023-04-18T01:36:27.201Z,560.00
2023-04-18T01:37:27.266Z,561.00
2023-04-18T01:38:27.341Z,558.00
2023-04-18T01:39:27.371Z,556.00
2023-04-18T01:40:27.434Z,553.00
2023-04-18T01:41:27.508Z,556.00
2023-04-18T01:42:27.533Z,555.00
2023-04-18T01:43:27.599Z,556.00
2023-04-18T01:44:27.645Z,557.00
2023-04-18T01:45:27.678Z,555.00
2023-04-18T01:46:28.501Z,558.00
2023-04-18T01:47:27.795Z,554.00
2023-04-18T01:48:27.818Z,554.00
2023-04-18T01:49:27.895Z,556.00
2023-04-18T01:50:27.912Z,558.00
2023-04-18T01:51:27.984Z,553.00
2023-04-18T01:52:27.997Z,556.00
2023-04-18T01:53:28.092Z,552.00
2023-04-18T01:54:28.108Z,560.00
2023-04-18T01:55:28.161Z,554.00
2023-04-18T01:56:28.228Z,556.00
2023-04-18T01:57:28.245Z,554.00
2023-04-18T01:58:28.336Z,552.00
2023-04-18T01:59:28.340Z,559.00
2023-04-18T02:00:28.470Z,557.00
2023-04-18T02:01:28.492Z,557.00
2023-04-18T02:02:28.646Z,553.00
2023-04-18T02:03:28.720Z,556.00
2023-04-18T02:04:28.600Z,558.00
2023-04-18T02:05:28.626Z,557.00
2023-04-18T02:06:28.693Z,554.00
2023-04-18T02:07:28.731Z,557.00
2023-04-18T02:08:28.775Z,555.00
2023-04-18T02:09:28.853Z,558.00
2023-04-18T02:10:28.842Z,553.00
2023-04-18T02:11:28.891Z,556.00
2023-04-18T02:12:28.947Z,554.00
2023-04-18T02:13:28.982Z,552.00
2023-04-18T02:14:29.080Z,555.00
2023-04-18T02:15:29.097Z,555.00
2023-04-18T02:16:29.182Z,556.00
2023-04-18T02:17:29.202Z,555.00
2023-04-18T02:18:29.223Z,556.00
2023-04-18T02:19:29.277Z,558.00
2023-04-18T02:20:29.292Z,555.00
2023-04-18T02:21:29.345Z,552.00
2023-04-18T02:22:29.400Z,554.00
2023-04-18T02:23:29.470Z,550.00
2023-04-18T02:24:29.543Z,554.00
2023-04-18T02:25:29.505Z,555.00
2023-04-18T02:26:29.582Z,553.00
2023-04-18T02:27:29.591Z,554.00
2023-04-18T02:28:29.648Z,556.00
2023-04-18T02:29:29.697Z,552.00
2023-04-18T02:30:29.732Z,555.00
2023-04-18T02:32:18.617Z,500.00
2023-04-18T02:33:18.534Z,500.00
2023-04-18T02:34:18.551Z,500.00
2023-04-18T02:35:18.545Z,500.00
2023-04-18T02:36:18.551Z,500.00
2023-04-18T02:37:18.530Z,500.00
2023-04-18T02:38:18.503Z,503.00
2023-04-18T02:39:18.556Z,500.00
2023-04-18T02:40:18.487Z,503.00
2023-04-18T02:41:18.496Z,503.00
2023-04-18T02:42:18.491Z,501.00
2023-04-18T02:43:18.528Z,502.00
2023-04-18T02:44:18.475Z,500.00
2023-04-18T02:45:18.461Z,501.00
2023-04-18T02:46:18.496Z,507.00
2023-04-18T02:47:18.441Z,502.00
2023-04-18T02:48:18.546Z,502.00
2023-04-18T02:49:18.454Z,501.00
2023-04-18T02:50:18.461Z,505.00
2023-04-18T02:51:18.439Z,504.00
2023-04-18T02:52:18.449Z,502.00
2023-04-18T02:53:18.415Z,508.00
2023-04-18T02:54:18.443Z,504.00
2023-04-18T02:55:18.451Z,506.00
2023-04-18T02:56:18.450Z,507.00
2023-04-18T02:57:18.377Z,503.00
2023-04-18T02:58:18.380Z,502.00
2023-04-18T02:59:18.368Z,507.00
2023-04-18T03:00:18.411Z,503.00
2023-04-18T03:01:18.444Z,501.00
2023-04-18T03:02:18.414Z,500.00
2023-04-18T03:03:18.380Z,501.00
2023-04-18T03:04:18.397Z,506.00
2023-04-18T03:05:18.346Z,502.00
2023-04-18T03:06:18.331Z,504.00
2023-04-18T03:07:18.318Z,504.00
2023-04-18T03:08:18.325Z,504.00
2023-04-18T03:09:18.312Z,505.00
2023-04-18T03:10:18.316Z,500.00
2023-04-18T03:11:18.326Z,502.00
2023-04-18T03:12:18.353Z,502.00
2023-04-18T03:13:18.281Z,506.00
2023-04-18T03:14:18.287Z,503.00
2023-04-18T03:15:18.265Z,507.00
2023-04-18T03:16:18.301Z,504.00
2023-04-18T03:17:18.314Z,508.00
2023-04-18T03:18:18.266Z,502.00
2023-04-18T03:19:18.342Z,504.00
2023-04-18T03:20:18.364Z,504.00
2023-04-18T03:21:18.425Z,503.00
2023-04-18T03:22:18.447Z,502.00
2023-04-18T03:23:18.491Z,506.00
2023-04-18T03:24:18.542Z,506.00
2023-04-18T03:25:18.597Z,506.00
2023-04-18T03:26:18.617Z,506.00
2023-04-18T03:27:18.685Z,504.00
2023-04-18T03:28:18.717Z,501.00
2023-04-18T03:29:18.765Z,504.00
2023-04-18T03:30:18.849Z,503.00
2023-04-18T03:31:18.912Z,507.00
2023-04-18T03:32:18.954Z,503.00
2023-04-18T03:33:18.950Z,504.00
2023-04-18T03:34:18.965Z,506.00
2023-04-18T03:35:19.050Z,506.00
2023-04-18T03:36:19.072Z,505.00
2023-04-18T03:37:19.118Z,507.00
2023-04-18T03:38:19.130Z,506.00
2023-04-18T03:39:19.171Z,509.00
2023-04-18T03:40:19.246Z,507.00
2023-04-18T03:41:19.257Z,505.00
2023-04-18T03:42:19.782Z,504.00
2023-04-18T03:43:19.324Z,509.00
2023-04-18T03:44:19.360Z,504.00
2023-04-18T03:45:19.428Z,505.00
2023-04-18T03:46:19.481Z,502.00
2023-04-18T03:47:19.487Z,504.00
2023-04-18T03:48:19.530Z,502.00
2023-04-18T03:49:19.544Z,507.00
2023-04-18T03:50:19.619Z,505.00
2023-04-18T03:51:19.656Z,508.00
2023-04-18T03:52:19.670Z,506.00
2023-04-18T03:53:19.752Z,503.00
2023-04-18T03:54:19.799Z,505.00
2023-04-18T03:55:19.812Z,508.00
2023-04-18T03:56:19.872Z,507.00
2023-04-18T03:57:19.942Z,512.00
2023-04-18T03:58:19.929Z,506.00
2023-04-18T03:59:20.028Z,508.00
2023-04-18T04:00:20.014Z,505.00
2023-04-18T04:01:20.091Z,509.00
2023-04-18T04:02:20.230Z,504.00
2023-04-18T04:03:20.233Z,505.00
2023-04-18T04:04:20.285Z,507.00
2023-04-18T04:05:20.273Z,506.00
2023-04-18T04:06:20.293Z,504.00
2023-04-18T04:07:20.379Z,505.00
2023-04-18T04:08:20.374Z,505.00
2023-04-18T04:09:20.457Z,510.00
2023-04-18T04:10:20.485Z,510.00
2023-04-18T04:11:20.530Z,506.00
2023-04-18T04:12:20.552Z,508.00
2023-04-18T04:13:20.590Z,512.00
2023-04-18T04:14:20.634Z,507.00
2023-04-18T04:15:20.685Z,508.00
2023-04-18T04:16:20.746Z,506.00
2023-04-18T04:17:20.730Z,501.00
2023-04-18T04:18:20.797Z,505.00
2023-04-18T04:19:20.828Z,507.00
2023-04-18T04:20:20.851Z,505.00
2023-04-18T04:21:21.251Z,507.00
2023-04-18T04:22:20.911Z,501.00
2023-04-18T04:23:20.941Z,504.00
2023-04-18T04:24:21.026Z,503.00
2023-04-18T04:25:21.046Z,506.00
2023-04-18T04:26:21.048Z,504.00
2023-04-18T04:27:21.081Z,500.00
2023-04-18T04:28:21.154Z,502.00
2023-04-18T04:29:21.157Z,507.00
2023-04-18T04:30:21.192Z,501.00
2023-04-18T04:31:21.271Z,506.00
2023-04-18T04:32:21.276Z,502.00
2023-04-18T04:33:21.329Z,505.00
2023-04-18T04:34:21.313Z,503.00
2023-04-18T04:35:21.365Z,504.00
2023-04-18T04:36:21.439Z,506.00
2023-04-18T04:37:21.421Z,500.00
2023-04-18T04:38:21.463Z,507.00
2023-04-18T04:39:21.495Z,505.00
2023-04-18T04:40:21.776Z,502.00
2023-04-18T04:41:21.561Z,503.00
2023-04-18T04:42:21.588Z,509.00
2023-04-18T04:43:21.628Z,505.00
2023-04-18T04:44:21.689Z,507.00
2023-04-18T04:45:21.721Z,505.00
2023-04-18T04:46:21.833Z,509.00
2023-04-18T04:47:21.858Z,509.00
2023-04-18T04:48:21.831Z,503.00
2023-04-18T04:49:21.827Z,507.00
2023-04-18T04:50:21.930Z,507.00
2023-04-18T04:51:21.915Z,507.00
2023-04-18T04:52:21.954Z,504.00
2023-04-18T04:53:21.989Z,503.00
2023-04-18T04:54:22.042Z,506.00
2023-04-18T04:55:22.072Z,504.00
2023-04-18T04:56:22.110Z,506.00
2023-04-18T04:57:22.176Z,504.00
2023-04-18T04:58:22.212Z,506.00
2023-04-18T04:59:22.245Z,503.00
2023-04-18T05:00:22.272Z,504.00
2023-04-18T05:01:22.343Z,503.00
2023-04-18T05:02:22.484Z,502.00
2023-04-18T05:03:22.584Z,505.00
2023-04-18T05:04:22.571Z,508.00
2023-04-18T05:05:22.493Z,506.00
2023-04-18T05:06:22.539Z,505.00
2023-04-18T05:07:22.549Z,506.00
2023-04-18T05:08:22.605Z,509.00
2023-04-18T05:09:22.638Z,505.00
2023-04-18T05:10:22.664Z,505.00
2023-04-18T05:11:22.704Z,505.00
2023-04-18T05:12:22.782Z,508.00
2023-04-18T05:13:22.793Z,509.00
2023-04-18T05:14:22.849Z,507.00
2023-04-18T05:15:22.874Z,507.00
2023-04-18T05:16:22.956Z,505.00
2023-04-18T05:17:22.961Z,503.00
2023-04-18T05:18:23.306Z,502.00
2023-04-18T05:19:22.999Z,505.00
2023-04-18T05:20:23.058Z,508.00
2023-04-18T05:21:23.859Z,504.00
2023-04-18T05:22:23.120Z,506.00
2023-04-18T05:23:23.289Z,504.00
2023-04-18T05:24:23.205Z,501.00
2023-04-18T05:25:23.200Z,505.00
2023-04-18T05:26:23.235Z,511.00
2023-04-18T05:27:23.369Z,510.00
2023-04-18T05:28:23.801Z,510.00
2023-04-18T05:29:24.322Z,508.00
2023-04-18T05:30:23.413Z,509.00
2023-04-18T05:31:23.498Z,507.00
2023-04-18T05:32:23.556Z,508.00
2023-04-18T05:33:23.608Z,507.00
2023-04-18T05:34:23.512Z,510.00
2023-04-18T05:35:23.620Z,531.00
2023-04-18T05:36:23.574Z,502.00
2023-04-18T05:37:23.632Z,526.00
2023-04-18T05:38:23.632Z,518.00
2023-04-18T05:39:23.670Z,537.00
2023-04-18T05:40:23.835Z,540.00
2023-04-18T05:41:23.648Z,546.00
2023-04-18T05:42:23.683Z,538.00
2023-04-18T05:43:23.808Z,548.00
2023-04-18T05:44:23.764Z,550.00
2023-04-18T05:45:24.381Z,550.00
2023-04-18T05:46:23.889Z,565.00
2023-04-18T05:47:23.967Z,576.00
2023-04-18T05:48:23.962Z,578.00
2023-04-18T05:49:23.962Z,566.00
2023-04-18T05:50:24.386Z,589.00
2023-04-18T05:51:24.046Z,593.00
2023-04-18T05:52:24.084Z,588.00
2023-04-18T05:53:24.334Z,593.00
2023-04-18T05:54:24.064Z,598.00
2023-04-18T05:55:24.090Z,603.00
2023-04-18T05:56:24.041Z,591.00
2023-04-18T05:57:24.051Z,593.00
2023-04-18T05:58:24.113Z,598.00
2023-04-18T05:59:24.224Z,593.00
2023-04-18T06:00:24.188Z,598.00
2023-04-18T06:01:24.865Z,592.00
2023-04-18T06:02:24.314Z,601.00
2023-04-18T06:03:25.018Z,609.00
2023-04-18T06:04:24.321Z,603.00
2023-04-18T06:05:24.448Z,604.00
2023-04-18T06:06:24.334Z,614.00
2023-04-18T06:07:24.350Z,605.00
2023-04-18T06:08:24.426Z,601.00
2023-04-18T06:09:24.484Z,597.00
2023-04-18T06:10:25.326Z,594.00
2023-04-18T06:11:24.636Z,596.00
2023-04-18T06:12:24.648Z,594.00
2023-04-18T06:13:24.722Z,584.00
2023-04-18T06:14:24.790Z,585.00
2023-04-18T06:15:24.848Z,590.00
2023-04-18T06:16:24.973Z,591.00
2023-04-18T06:17:24.994Z,588.00
2023-04-18T06:18:24.974Z,572.00
2023-04-18T06:19:25.036Z,576.00
2023-04-18T06:20:25.043Z,573.00
2023-04-18T06:21:25.082Z,575.00
2023-04-18T06:22:25.151Z,577.00
2023-04-18T06:23:25.245Z,622.00
2023-04-18T06:24:25.300Z,662.00
2023-04-18T06:25:25.328Z,663.00
2023-04-18T06:26:25.295Z,660.00
2023-04-18T06:27:31.656Z,647.00
2023-04-18T06:28:26.313Z,647.00
2023-04-18T06:29:25.296Z,649.00
2023-04-18T06:30:25.301Z,638.00
2023-04-18T06:31:25.338Z,620.00
2023-04-18T06:32:25.323Z,614.00
2023-04-18T06:33:25.344Z,595.00
2023-04-18T06:34:25.279Z,594.00
2023-04-18T06:35:26.745Z,583.00
2023-04-18T06:36:25.864Z,582.00
2023-04-18T06:37:25.265Z,575.00
2023-04-18T06:38:25.360Z,563.00
2023-04-18T06:39:25.239Z,554.00
2023-04-18T06:40:25.357Z,544.00
2023-04-18T06:41:25.382Z,548.00
2023-04-18T06:42:25.290Z,538.00
2023-04-18T06:43:25.263Z,540.00
2023-04-18T06:44:25.272Z,540.00
2023-04-18T06:45:25.419Z,546.00
2023-04-18T06:46:27.907Z,549.00
2023-04-18T06:47:25.644Z,553.00
2023-04-18T06:48:25.518Z,547.00
2023-04-18T06:49:26.721Z,552.00
2023-04-18T06:50:25.922Z,556.00
2023-04-18T06:51:25.580Z,553.00
2023-04-18T06:52:25.556Z,563.00
2023-04-18T06:53:25.573Z,551.00
2023-04-18T06:54:25.569Z,549.00
2023-04-18T06:55:25.598Z,550.00
2023-04-18T06:56:25.599Z,547.00
2023-04-18T06:57:26.334Z,546.00
2023-04-18T06:58:25.607Z,562.00
2023-04-18T06:59:25.607Z,579.00
2023-04-18T07:00:25.837Z,541.00
2023-04-18T07:01:25.656Z,537.00
2023-04-18T07:02:25.705Z,537.00
2023-04-18T07:03:25.888Z,547.00
2023-04-18T07:04:25.822Z,544.00
2023-04-18T07:05:26.342Z,550.00
2023-04-18T07:06:25.589Z,556.00
2023-04-18T07:07:25.608Z,549.00
2023-04-18T07:08:25.581Z,547.00
2023-04-18T07:09:25.590Z,541.00
2023-04-18T07:10:25.584Z,542.00
2023-04-18T07:11:25.584Z,544.00
2023-04-18T07:12:25.593Z,550.00
2023-04-18T07:13:26.428Z,546.00
2023-04-18T07:14:25.577Z,544.00
2023-04-18T07:15:25.572Z,552.00
2023-04-18T07:16:25.661Z,558.00
2023-04-18T07:17:25.651Z,535.00
2023-04-18T07:18:36.694Z,535.00
2023-04-18T07:19:26.595Z,536.00
2023-04-18T07:20:25.622Z,538.00
2023-04-18T07:21:26.324Z,540.00
2023-04-18T07:22:25.645Z,543.00
2023-04-18T07:23:25.566Z,549.00
2023-04-18T07:24:25.558Z,539.00
2023-04-18T07:25:25.574Z,549.00
2023-04-18T07:26:25.549Z,542.00
2023-04-18T07:27:25.541Z,540.00
2023-04-18T07:28:25.565Z,550.00
2023-04-18T07:29:25.678Z,543.00
2023-04-18T07:30:25.722Z,543.00
2023-04-18T07:31:25.888Z,543.00
2023-04-18T07:32:25.884Z,536.00
2023-04-18T07:33:25.999Z,540.00
2023-04-18T07:34:26.876Z,532.00
2023-04-18T07:35:26.021Z,540.00
2023-04-18T07:36:26.088Z,538.00
2023-04-18T07:37:26.181Z,543.00
2023-04-18T07:38:26.218Z,545.00
2023-04-18T07:39:26.418Z,557.00
2023-04-18T07:40:26.355Z,559.00
2023-04-18T07:41:26.477Z,562.00
2023-04-18T07:42:26.439Z,571.00
2023-04-18T07:43:26.507Z,593.00
2023-04-18T07:44:26.523Z,602.00
2023-04-18T07:45:26.883Z,609.00
2023-04-18T07:46:26.708Z,612.00
2023-04-18T07:47:27.612Z,632.00
2023-04-18T07:48:26.676Z,657.00
2023-04-18T07:49:26.638Z,661.00
2023-04-18T07:50:26.771Z,650.00
2023-04-18T07:51:26.712Z,670.00
2023-04-18T07:52:26.953Z,660.00
2023-04-18T07:53:26.705Z,663.00
2023-04-18T07:54:26.606Z,657.00
2023-04-18T07:55:26.903Z,671.00
2023-04-18T07:56:26.617Z,668.00
2023-04-18T07:57:26.586Z,662.00
2023-04-18T07:58:26.657Z,654.00
2023-04-18T07:59:26.851Z,655.00
2023-04-18T08:00:27.469Z,651.00
2023-04-18T08:01:27.375Z,655.00
2023-04-18T08:02:26.780Z,658.00
2023-04-18T08:03:26.797Z,660.00
2023-04-18T08:04:29.762Z,657.00
2023-04-18T08:05:26.890Z,658.00
2023-04-18T08:06:26.641Z,658.00
2023-04-18T08:07:26.568Z,663.00
2023-04-18T08:08:26.672Z,672.00
2023-04-18T08:09:26.558Z,707.00
2023-04-18T08:10:26.527Z,722.00
2023-04-18T08:11:26.510Z,699.00
2023-04-18T08:12:26.502Z,730.00
2023-04-18T08:13:26.508Z,744.00
2023-04-18T08:14:26.491Z,762.00
2023-04-18T08:15:26.512Z,779.00
2023-04-18T08:16:26.553Z,786.00
2023-04-18T08:17:26.521Z,803.00
2023-04-18T08:18:26.482Z,831.00
2023-04-18T08:19:26.447Z,834.00
2023-04-18T08:20:26.590Z,842.00
2023-04-18T08:21:26.470Z,861.00
2023-04-18T08:22:26.555Z,864.00
2023-04-18T08:23:26.585Z,875.00
2023-04-18T08:24:26.985Z,659.00
2023-04-18T08:25:26.863Z,495.00
2023-04-18T08:26:26.984Z,540.00
2023-04-18T08:27:26.435Z,497.00
2023-04-18T08:28:26.396Z,444.00
2023-04-18T08:29:26.412Z,496.00
2023-04-18T08:30:26.421Z,525.00
2023-04-18T08:31:26.607Z,541.00
2023-04-18T08:32:26.433Z,544.00
2023-04-18T08:33:26.502Z,531.00
2023-04-18T08:34:26.959Z,521.00
2023-04-18T08:35:26.358Z,486.00
2023-04-18T08:36:26.366Z,479.00
2023-04-18T08:37:26.360Z,547.00
2023-04-18T08:38:26.375Z,587.00
2023-04-18T08:39:26.362Z,623.00
2023-04-18T08:40:26.594Z,626.00
2023-04-18T08:41:26.536Z,632.00
2023-04-18T08:42:26.357Z,633.00
2023-04-18T08:43:26.305Z,632.00
2023-04-18T08:44:26.358Z,633.00
2023-04-18T08:45:26.335Z,625.00
2023-04-18T08:46:27.017Z,620.00
2023-04-18T08:47:26.302Z,631.00
2023-04-18T08:48:26.286Z,632.00
2023-04-18T08:49:26.390Z,635.00
2023-04-18T08:50:26.358Z,633.00
2023-04-18T08:51:26.884Z,641.00
2023-04-18T08:52:26.458Z,646.00
2023-04-18T08:53:26.492Z,652.00
2023-04-18T08:54:27.386Z,654.00
2023-04-18T08:55:26.911Z,657.00
2023-04-18T08:56:27.136Z,666.00
2023-04-18T08:57:26.725Z,664.00
2023-04-18T08:58:26.646Z,684.00
2023-04-18T08:59:26.675Z,689.00
2023-04-18T09:00:26.893Z,708.00
2023-04-18T09:01:26.843Z,721.00
2023-04-18T09:02:26.877Z,720.00
2023-04-18T09:03:26.788Z,723.00
2023-04-18T09:04:26.903Z,726.00
2023-04-18T09:05:26.970Z,749.00
2023-04-18T09:06:27.932Z,757.00
2023-04-18T09:07:26.746Z,757.00
2023-04-18T09:08:26.824Z,767.00
2023-04-18T09:09:26.743Z,768.00
2023-04-18T09:10:26.764Z,762.00
2023-04-18T09:11:26.748Z,768.00
2023-04-18T09:12:26.816Z,771.00
2023-04-18T09:13:26.821Z,768.00
2023-04-18T09:14:26.746Z,790.00
2023-04-18T09:15:26.750Z,794.00
2023-04-18T09:16:26.776Z,800.00
2023-04-18T09:17:26.790Z,814.00
2023-04-18T09:18:26.766Z,814.00
2023-04-18T09:19:27.466Z,812.00
2023-04-18T09:20:26.925Z,809.00
2023-04-18T09:21:26.881Z,811.00
2023-04-18T09:22:26.902Z,788.00
2023-04-18T09:23:26.868Z,785.00
2023-04-18T09:24:26.848Z,795.00
2023-04-18T09:25:26.927Z,803.00
2023-04-18T09:26:26.912Z,821.00
2023-04-18T09:27:27.006Z,849.00
2023-04-18T09:28:27.163Z,880.00
2023-04-18T09:29:27.161Z,904.00
2023-04-18T09:30:27.135Z,892.00
2023-04-18T09:31:27.322Z,899.00
2023-04-18T09:32:27.480Z,901.00
2023-04-18T09:33:27.332Z,888.00
2023-04-18T09:34:27.402Z,791.00
2023-04-18T09:35:27.965Z,525.00
2023-04-18T09:36:27.655Z,439.00
2023-04-18T09:37:27.484Z,400.00
2023-04-18T09:38:27.680Z,426.00
2023-04-18T09:39:27.492Z,519.00
2023-04-18T09:40:27.492Z,522.00
2023-04-18T09:41:27.566Z,543.00
2023-04-18T09:42:28.926Z,551.00
2023-04-18T09:43:27.522Z,574.00
2023-04-18T09:44:27.714Z,587.00
2023-04-18T09:45:27.562Z,589.00
2023-04-18T09:46:27.647Z,619.00
2023-04-18T09:47:27.627Z,645.00
2023-04-18T09:48:27.605Z,637.00
2023-04-18T09:49:28.428Z,664.00
2023-04-18T09:50:27.908Z,646.00
2023-04-18T09:51:28.496Z,474.00
2023-04-18T09:52:28.399Z,469.00
2023-04-18T09:53:27.799Z,544.00
2023-04-18T09:54:27.794Z,582.00
2023-04-18T09:55:27.891Z,614.00
2023-04-18T09:56:27.973Z,622.00
2023-04-18T09:57:27.826Z,670.00
2023-04-18T09:58:27.875Z,712.00
2023-04-18T09:59:27.897Z,723.00
2023-04-18T10:00:27.967Z,759.00
2023-04-18T10:01:27.980Z,768.00
2023-04-18T10:02:28.107Z,835.00
2023-04-18T10:03:28.178Z,842.00
2023-04-18T10:04:28.171Z,856.00
2023-04-18T10:05:28.234Z,892.00
2023-04-18T10:06:28.275Z,924.00
2023-04-18T10:07:28.329Z,905.00
2023-04-18T10:08:28.361Z,930.00
2023-04-18T10:09:28.465Z,961.00
2023-04-18T10:10:28.448Z,960.00
2023-04-18T10:11:28.520Z,969.00
2023-04-18T10:12:28.611Z,973.00
2023-04-18T10:13:28.594Z,975.00
2023-04-18T10:14:28.665Z,982.00
2023-04-18T10:15:28.955Z,988.00
2023-04-18T10:16:28.756Z,993.00
2023-04-18T10:17:29.680Z,845.00
2023-04-18T10:18:28.526Z,934.00
2023-04-18T10:19:28.590Z,928.00
2023-04-18T10:20:29.556Z,969.00
2023-04-18T10:21:28.479Z,979.00
2023-04-18T10:22:28.606Z,978.00
2023-04-18T10:23:28.548Z,974.00
2023-04-18T10:24:28.726Z,988.00
2023-04-18T10:25:28.622Z,989.00
2023-04-18T10:26:29.079Z,917.00
2023-04-18T10:27:31.438Z,855.00
2023-04-18T10:28:28.834Z,880.00
2023-04-18T10:29:28.748Z,826.00
2023-04-18T10:30:28.736Z,816.00
2023-04-18T10:31:29.537Z,911.00
2023-04-18T10:32:28.704Z,986.00
2023-04-18T10:33:31.000Z,994.00
2023-04-18T10:34:28.701Z,996.00
2023-04-18T10:35:28.670Z,1006.00
2023-04-18T10:36:28.948Z,1026.00
2023-04-18T10:37:28.618Z,1068.00
2023-04-18T10:38:28.695Z,961.00
2023-04-18T10:39:28.605Z,920.00
2023-04-18T10:40:28.598Z,998.00
2023-04-18T10:41:28.589Z,977.00
2023-04-18T10:42:28.619Z,984.00
2023-04-18T10:43:28.588Z,1016.00
2023-04-18T10:44:28.596Z,1041.00
2023-04-18T10:45:28.593Z,1010.00
2023-04-18T10:46:32.582Z,1067.00
2023-04-18T10:47:28.681Z,1070.00
2023-04-18T10:48:28.553Z,1075.00
2023-04-18T10:49:31.040Z,1098.00
2023-04-18T10:50:28.564Z,1072.00
2023-04-18T10:51:28.555Z,1087.00
2023-04-18T10:52:28.532Z,1112.00
2023-04-18T10:53:28.516Z,1152.00
2023-04-18T10:54:28.562Z,1237.00
2023-04-18T10:55:28.542Z,1245.00
2023-04-18T10:56:28.595Z,1251.00
2023-04-18T10:57:28.495Z,1272.00
2023-04-18T10:58:28.510Z,1292.00
2023-04-18T10:59:28.518Z,1325.00
2023-04-18T11:00:28.552Z,1348.00
2023-04-18T11:01:32.125Z,1347.00
2023-04-18T11:02:28.619Z,1350.00
2023-04-18T11:03:28.551Z,1353.00
2023-04-18T11:04:28.666Z,1354.00
2023-04-18T11:05:28.620Z,1359.00
2023-04-18T11:06:28.597Z,1377.00
2023-04-18T11:07:29.975Z,1396.00
2023-04-18T11:08:28.489Z,1395.00
2023-04-18T11:09:28.535Z,1398.00
2023-04-18T11:10:28.540Z,1415.00
2023-04-18T11:11:28.523Z,1409.00
2023-04-18T11:12:28.484Z,1413.00
2023-04-18T11:13:28.392Z,1409.00
2023-04-18T11:14:28.389Z,1413.00
2023-04-18T11:15:30.393Z,1412.00
2023-04-18T11:16:28.638Z,1406.00
2023-04-18T11:17:28.601Z,1374.00
2023-04-18T11:18:28.579Z,1372.00
2023-04-18T11:19:28.630Z,1385.00
2023-04-18T11:20:28.620Z,1382.00
2023-04-18T11:21:30.439Z,1392.00
2023-04-18T11:22:28.954Z,1399.00
2023-04-18T11:23:30.428Z,1388.00
2023-04-18T11:24:28.638Z,1392.00
2023-04-18T11:25:28.781Z,1374.00
2023-04-18T11:26:28.642Z,1382.00
2023-04-18T11:27:28.974Z,1393.00
2023-04-18T11:28:28.689Z,1376.00
2023-04-18T11:29:28.685Z,1388.00
2023-04-18T11:30:28.706Z,1388.00
2023-04-18T11:31:28.788Z,1394.00
2023-04-18T11:32:28.839Z,1383.00
2023-04-18T11:33:28.779Z,1382.00
2023-04-18T11:34:28.842Z,1393.00
2023-04-18T11:35:28.835Z,1388.00
2023-04-18T11:36:28.871Z,1383.00
2023-04-18T11:37:28.929Z,1376.00
2023-04-18T11:38:28.926Z,1382.00
2023-04-18T11:39:28.954Z,1378.00
2023-04-18T11:40:28.980Z,1390.00
2023-04-18T11:41:29.062Z,1378.00
2023-04-18T11:42:29.071Z,1387.00
2023-04-18T11:43:29.094Z,1374.00
2023-04-18T11:44:29.129Z,1390.00
2023-04-18T11:45:29.156Z,1363.00
2023-04-18T11:46:29.263Z,1357.00
2023-04-18T11:47:29.252Z,1371.00
2023-04-18T11:48:29.250Z,1378.00
2023-04-18T11:49:29.321Z,1376.00
2023-04-18T11:50:29.426Z,1373.00
2023-04-18T11:51:29.346Z,1372.00
2023-04-18T11:52:29.410Z,1377.00
2023-04-18T11:53:29.419Z,1362.00
2023-04-18T11:54:29.527Z,1372.00
2023-04-18T11:55:29.486Z,1365.00
2023-04-18T11:56:29.518Z,1366.00
2023-04-18T11:57:29.566Z,1367.00
2023-04-18T11:58:29.578Z,1369.00
2023-04-18T11:59:29.594Z,1364.00
2023-04-18T12:00:29.639Z,1376.00
2023-04-18T12:01:29.670Z,1357.00
2023-04-18T12:02:29.828Z,1366.00
2023-04-18T12:03:29.922Z,1354.00
2023-04-18T12:04:30.059Z,1359.00
2023-04-18T12:05:30.093Z,1345.00
2023-04-18T12:06:29.911Z,1341.00
2023-04-18T12:07:29.923Z,1351.00
2023-04-18T12:08:29.937Z,1353.00
2023-04-18T12:09:29.968Z,1340.00
2023-04-18T12:10:29.976Z,1345.00
2023-04-18T12:11:30.012Z,1345.00
2023-04-18T12:12:30.605Z,1341.00
2023-04-18T12:13:30.092Z,1345.00
2023-04-18T12:14:30.117Z,1339.00
2023-04-18T12:15:30.157Z,1337.00
2023-04-18T12:16:30.254Z,1333.00
2023-04-18T12:17:30.282Z,1343.00
2023-04-18T12:18:30.308Z,1337.00
2023-04-18T12:19:30.371Z,1323.00
2023-04-18T12:20:30.325Z,1328.00
2023-04-18T12:21:30.430Z,1325.00
2023-04-18T12:22:30.483Z,1325.00
2023-04-18T12:23:30.476Z,1327.00
2023-04-18T12:24:30.563Z,1326.00
2023-04-18T12:25:30.628Z,1331.00
2023-04-18T12:26:30.603Z,1326.00